createdAt,value
2022-08-03T00:01:29.534Z,4.63
2022-08-03T00:03:56.910Z,4.18
2022-08-03T00:06:24.118Z,4.80
2022-08-03T00:08:51.353Z,3.90
2022-08-03T00:11:18.727Z,4.85
2022-08-03T00:13:46.012Z,3.75
2022-08-03T00:16:13.502Z,3.15
2022-08-03T00:18:40.870Z,4.18
2022-08-03T00:21:08.175Z,3.75
2022-08-03T00:23:51.498Z,3.70
2022-08-03T00:26:20.571Z,3.15
2022-08-03T00:28:47.973Z,3.00
2022-08-03T00:31:15.269Z,3.13
2022-08-03T00:33:57.971Z,3.38
2022-08-03T00:36:26.929Z,3.13
2022-08-03T00:38:54.190Z,2.70
2022-08-03T00:41:21.432Z,3.25
2022-08-03T00:43:48.663Z,3.85
2022-08-03T00:46:20.795Z,3.30
2022-08-03T00:48:49.524Z,3.03
2022-08-03T00:51:16.856Z,3.27
2022-08-03T00:53:45.505Z,3.17
2022-08-03T00:56:19.184Z,3.47
2022-08-03T00:58:47.394Z,3.10
2022-08-03T01:01:15.211Z,3.30
2022-08-03T01:03:42.708Z,3.15
2022-08-03T01:06:22.732Z,3.30
2022-08-03T01:09:31.767Z,3.45
2022-08-03T01:12:22.933Z,2.60
2022-08-03T01:15:02.236Z,3.15
2022-08-03T01:17:47.288Z,3.05
2022-08-03T01:20:15.384Z,2.97
2022-08-03T01:23:07.878Z,2.97
2022-08-03T01:25:46.966Z,2.65
2022-08-03T01:28:59.373Z,3.00
2022-08-03T01:32:59.468Z,2.33
2022-08-03T01:34:41.607Z,2.90
2022-08-03T01:37:11.730Z,2.55
2022-08-03T01:39:40.394Z,3.05
2022-08-03T01:42:08.941Z,2.90
2022-08-03T01:44:38.746Z,2.65
2022-08-03T01:47:06.528Z,2.47
2022-08-03T01:49:39.907Z,2.22
2022-08-03T01:52:08.507Z,2.60
2022-08-03T01:54:38.270Z,2.40
2022-08-03T01:57:05.918Z,2.20
2022-08-03T01:59:35.713Z,2.60
2022-08-03T02:02:31.777Z,2.85
2022-08-03T02:04:53.858Z,2.42
2022-08-03T02:07:21.210Z,2.58
2022-08-03T02:09:52.718Z,2.88
2022-08-03T02:12:22.491Z,2.58
2022-08-03T02:14:50.160Z,2.83
2022-08-03T02:17:17.585Z,2.30
2022-08-03T02:19:45.315Z,2.80
2022-08-03T02:22:13.981Z,2.50
2022-08-03T02:24:41.558Z,2.50
2022-08-03T02:27:23.393Z,2.58
2022-08-03T02:30:12.539Z,2.73
2022-08-03T02:32:41.278Z,2.80
2022-08-03T02:35:11.905Z,2.58
2022-08-03T02:37:45.016Z,2.50
2022-08-03T02:40:19.560Z,2.60
2022-08-03T02:42:48.454Z,3.10
2022-08-03T02:45:17.597Z,2.65
2022-08-03T02:50:23.281Z,2.80
2022-08-03T02:52:51.056Z,2.30
2022-08-03T02:55:21.190Z,2.47
2022-08-03T02:57:48.950Z,2.60
2022-08-03T03:00:27.204Z,2.50
2022-08-03T03:02:58.328Z,2.60
2022-08-03T03:05:56.115Z,2.72
2022-08-03T03:08:23.570Z,2.88
2022-08-03T03:10:55.585Z,2.45
2022-08-03T03:13:23.501Z,3.03
2022-08-03T03:15:52.408Z,3.00
2022-08-03T03:18:22.795Z,2.72
2022-08-03T03:20:51.896Z,3.08
2022-08-03T03:23:21.826Z,2.83
2022-08-03T03:25:49.372Z,2.85
2022-08-03T03:28:16.768Z,2.80
2022-08-03T03:30:44.076Z,2.85
2022-08-03T03:33:11.457Z,2.53
2022-08-03T03:35:39.421Z,3.05
2022-08-03T03:38:09.618Z,2.70
2022-08-03T03:40:38.051Z,2.70
2022-08-03T03:43:09.788Z,2.53
2022-08-03T03:45:37.356Z,2.85
2022-08-03T03:48:05.677Z,3.22
2022-08-03T03:50:34.119Z,3.10
2022-08-03T03:53:02.138Z,2.70
2022-08-03T03:55:29.656Z,2.90
2022-08-03T03:57:57.332Z,2.78
2022-08-03T04:00:24.593Z,2.90
2022-08-03T04:02:51.821Z,3.17
2022-08-03T04:05:37.656Z,2.58
2022-08-03T04:08:27.954Z,2.23
2022-08-03T04:11:29.339Z,2.80
2022-08-03T04:14:03.392Z,2.85
2022-08-03T04:16:39.738Z,2.85
2022-08-03T04:19:17.481Z,2.90
2022-08-03T04:21:51.606Z,2.38
2022-08-03T04:24:20.520Z,2.55
2022-08-03T04:26:52.642Z,2.92
2022-08-03T04:29:21.753Z,3.15
2022-08-03T04:31:49.571Z,3.00
2022-08-03T04:34:17.017Z,2.70
2022-08-03T04:36:49.364Z,3.15
2022-08-03T04:39:27.203Z,2.85
2022-08-03T04:42:07.270Z,2.45
2022-08-03T04:44:41.243Z,2.78
2022-08-03T04:47:08.729Z,3.00
2022-08-03T04:49:37.991Z,2.72
2022-08-03T04:52:07.514Z,2.70
2022-08-03T04:54:48.814Z,2.53
2022-08-03T04:57:23.143Z,2.78
2022-08-03T05:00:02.461Z,2.65
2022-08-03T05:02:31.982Z,2.38
2022-08-03T05:04:59.652Z,2.42
2022-08-03T05:07:35.777Z,2.72
2022-08-03T05:10:15.670Z,2.85
2022-08-03T05:12:44.838Z,3.03
2022-08-03T05:15:12.700Z,2.63
2022-08-03T05:17:40.003Z,2.50
2022-08-03T05:20:07.836Z,2.58
2022-08-03T05:22:35.073Z,2.90
2022-08-03T05:25:02.953Z,3.55
2022-08-03T05:27:30.277Z,2.80
2022-08-03T05:30:30.828Z,2.67
2022-08-03T05:32:44.749Z,2.55
2022-08-03T05:35:57.234Z,2.60
2022-08-03T05:37:59.208Z,2.33
2022-08-03T05:40:26.871Z,2.53
2022-08-03T05:42:54.210Z,2.20
2022-08-03T05:45:26.612Z,2.92
2022-08-03T05:47:55.689Z,2.70
2022-08-03T05:50:22.961Z,2.72
2022-08-03T05:52:50.164Z,2.38
2022-08-03T05:55:17.754Z,2.60
2022-08-03T05:57:47.232Z,2.08
2022-08-03T06:00:17.169Z,2.30
2022-08-03T06:02:44.423Z,2.17
2022-08-03T06:05:11.710Z,2.50
2022-08-03T06:07:39.009Z,2.25
2022-08-03T06:10:37.320Z,2.05
2022-08-03T06:12:54.117Z,2.70
2022-08-03T06:15:21.373Z,1.98
2022-08-03T06:17:49.480Z,2.25
2022-08-03T06:20:18.480Z,2.27
2022-08-03T06:22:51.376Z,2.08
2022-08-03T06:25:27.905Z,2.17
2022-08-03T06:27:55.176Z,2.00
2022-08-03T06:30:22.541Z,2.10
2022-08-03T06:32:52.041Z,1.83
2022-08-03T06:35:19.908Z,1.83
2022-08-03T06:37:49.008Z,1.70
2022-08-03T06:40:21.707Z,1.90
2022-08-03T06:42:50.842Z,1.80
2022-08-03T06:45:18.685Z,1.50
2022-08-03T06:47:45.936Z,1.60
2022-08-03T06:50:16.850Z,1.83
2022-08-03T06:52:45.343Z,1.77
2022-08-03T06:55:12.739Z,1.58
2022-08-03T06:57:39.987Z,2.03
2022-08-03T07:00:12.253Z,2.00
2022-08-03T07:02:40.320Z,1.50
2022-08-03T07:05:08.739Z,1.42
2022-08-03T07:07:36.012Z,2.40
2022-08-03T07:10:03.642Z,1.63
2022-08-03T07:12:32.055Z,1.55
2022-08-03T07:17:31.695Z,1.75
2022-08-03T07:22:26.395Z,1.45
2022-08-03T07:24:54.222Z,2.15
2022-08-03T07:27:21.462Z,1.50
2022-08-03T07:29:48.791Z,1.50
2022-08-03T07:32:16.188Z,1.70
2022-08-03T07:34:43.951Z,1.40
2022-08-03T07:37:11.407Z,2.17
2022-08-03T07:39:38.659Z,1.55
2022-08-03T07:42:05.891Z,1.50
2022-08-03T07:44:33.229Z,1.40
2022-08-03T07:47:00.640Z,1.52
2022-08-03T07:49:30.923Z,1.40
2022-08-03T07:52:17.373Z,1.77
2022-08-03T07:54:44.905Z,1.52
2022-08-03T07:57:12.154Z,1.52
2022-08-03T07:59:56.415Z,1.58
2022-08-03T08:02:27.281Z,1.40
2022-08-03T08:04:55.035Z,1.42
2022-08-03T08:07:22.283Z,1.40
2022-08-03T08:09:49.538Z,1.20
2022-08-03T08:12:16.984Z,1.58
2022-08-03T08:14:46.708Z,1.50
2022-08-03T08:17:14.348Z,1.40
2022-08-03T08:19:43.817Z,1.40
2022-08-03T08:22:26.535Z,1.60
2022-08-03T08:25:01.190Z,1.75
2022-08-03T08:28:22.275Z,1.00
2022-08-03T08:30:19.668Z,1.17
2022-08-03T08:32:47.664Z,1.25
2022-08-03T08:35:15.294Z,1.13
2022-08-03T08:37:43.228Z,1.40
2022-08-03T08:40:20.910Z,1.48
2022-08-03T08:42:57.834Z,1.00
2022-08-03T08:45:25.486Z,1.73
2022-08-03T08:47:55.775Z,1.35
2022-08-03T08:50:27.636Z,1.20
2022-08-03T08:52:55.819Z,1.30
2022-08-03T08:55:24.154Z,1.33
2022-08-03T09:00:20.378Z,1.35
2022-08-03T09:02:47.670Z,1.50
2022-08-03T09:05:16.932Z,1.30
2022-08-03T09:07:44.820Z,1.17
2022-08-03T09:10:13.960Z,1.20
2022-08-03T09:12:49.305Z,0.85
2022-08-03T09:15:19.629Z,1.35
2022-08-03T09:17:50.870Z,1.25
2022-08-03T09:20:19.643Z,1.27
2022-08-03T09:22:54.627Z,1.10
2022-08-03T09:25:30.513Z,1.10
2022-08-03T09:28:07.783Z,1.00
2022-08-03T09:30:35.964Z,1.27
2022-08-03T09:33:08.994Z,1.13
2022-08-03T09:35:59.997Z,0.90
2022-08-03T09:38:27.530Z,1.00
2022-08-03T09:40:59.498Z,1.00
2022-08-03T09:43:28.054Z,1.20
2022-08-03T09:46:04.114Z,1.20
2022-08-03T09:48:32.516Z,1.10
2022-08-03T09:53:58.844Z,1.20
2022-08-03T09:56:39.469Z,1.40
2022-08-03T09:59:06.748Z,1.10
2022-08-03T10:01:35.251Z,1.40
2022-08-03T10:04:04.010Z,1.25
2022-08-03T10:06:32.079Z,1.17
2022-08-03T10:09:13.765Z,1.20
2022-08-03T10:11:42.514Z,0.90
2022-08-03T10:14:19.445Z,1.20
2022-08-03T10:16:48.180Z,1.60
2022-08-03T10:19:15.800Z,1.25
2022-08-03T10:21:51.336Z,1.00
2022-08-03T10:24:24.722Z,1.10
2022-08-03T10:26:52.407Z,1.00
2022-08-03T10:29:24.696Z,1.10
2022-08-03T10:31:58.059Z,1.15
2022-08-03T10:34:27.477Z,1.20
2022-08-03T10:36:58.865Z,1.15
2022-08-03T10:39:29.026Z,1.38
2022-08-03T10:41:58.650Z,1.17
2022-08-03T10:44:31.027Z,1.23
2022-08-03T10:46:58.460Z,1.33
2022-08-03T10:49:34.253Z,1.30
2022-08-03T10:52:11.393Z,1.08
2022-08-03T10:55:10.998Z,1.15
2022-08-03T10:57:45.860Z,1.15
2022-08-03T11:00:18.013Z,1.27
2022-08-03T11:03:16.801Z,1.27
2022-08-03T11:05:49.183Z,1.23
2022-08-03T11:08:24.891Z,1.08
2022-08-03T11:10:55.158Z,1.50
2022-08-03T11:13:24.669Z,0.90
2022-08-03T11:16:01.651Z,1.00
2022-08-03T11:18:34.553Z,1.02
2022-08-03T11:21:03.146Z,1.20
2022-08-03T11:24:04.541Z,1.20
2022-08-03T11:26:36.218Z,1.20
2022-08-03T11:29:30.295Z,1.10
2022-08-03T11:32:01.201Z,1.25
2022-08-03T11:34:28.492Z,0.90
2022-08-03T11:37:22.271Z,1.30
2022-08-03T11:39:55.535Z,1.52
2022-08-03T11:42:22.986Z,1.48
2022-08-03T11:45:01.414Z,1.00
2022-08-03T11:47:31.787Z,1.00
2022-08-03T11:50:02.090Z,1.17
2022-08-03T11:52:37.394Z,1.40
2022-08-03T11:55:10.509Z,1.15
2022-08-03T11:59:17.704Z,1.40
2022-08-03T12:00:33.036Z,1.35
2022-08-03T12:03:10.890Z,1.13
2022-08-03T12:05:51.931Z,1.23
2022-08-03T12:08:40.551Z,1.25
2022-08-03T12:14:27.420Z,1.20
2022-08-03T12:16:28.759Z,1.20
2022-08-03T12:19:01.089Z,1.33
2022-08-03T12:21:28.915Z,1.55
2022-08-03T12:24:03.968Z,1.45
2022-08-03T12:26:42.906Z,1.42
2022-08-03T12:29:20.490Z,1.38
2022-08-03T12:31:48.357Z,1.48
2022-08-03T12:34:16.400Z,1.40
2022-08-03T12:36:56.061Z,1.00
2022-08-03T12:39:30.946Z,1.10
2022-08-03T12:41:58.449Z,1.27
2022-08-03T12:44:36.000Z,1.15
2022-08-03T12:47:03.908Z,1.40
2022-08-03T12:49:46.331Z,1.55
2022-08-03T12:52:13.864Z,1.30
2022-08-03T12:54:41.286Z,1.40
2022-08-03T12:57:15.807Z,1.50
2022-08-03T12:59:53.324Z,1.20
2022-08-03T13:02:25.910Z,1.35
2022-08-03T13:04:55.964Z,1.30
2022-08-03T13:07:24.054Z,1.45
2022-08-03T13:09:54.343Z,1.15
2022-08-03T13:12:23.869Z,1.40
2022-08-03T13:14:53.493Z,1.40
2022-08-03T13:17:21.580Z,1.25
2022-08-03T13:19:49.796Z,1.40
2022-08-03T13:22:20.126Z,1.33
2022-08-03T13:24:50.671Z,1.30
2022-08-03T13:28:02.628Z,1.30
2022-08-03T13:30:06.233Z,1.40
2022-08-03T13:32:33.858Z,1.25
2022-08-03T13:35:02.688Z,1.27
2022-08-03T13:37:32.172Z,1.50
2022-08-03T13:40:02.537Z,1.20
2022-08-03T13:42:34.364Z,1.40
2022-08-03T13:45:02.506Z,1.30
2022-08-03T13:47:31.140Z,1.20
2022-08-03T13:50:01.089Z,1.30
2022-08-03T13:52:50.275Z,1.40
2022-08-03T13:55:17.547Z,1.30
2022-08-03T13:58:02.349Z,1.10
2022-08-03T14:00:33.114Z,1.20
2022-08-03T14:03:12.579Z,1.20
2022-08-03T14:05:41.475Z,1.20
2022-08-03T14:08:09.340Z,1.05
2022-08-03T14:10:45.630Z,1.33
2022-08-03T14:13:17.707Z,1.13
2022-08-03T14:15:49.604Z,1.33
2022-08-03T14:18:28.945Z,1.30
2022-08-03T14:21:06.894Z,1.30
2022-08-03T14:23:38.373Z,1.38
2022-08-03T14:26:10.572Z,1.30
2022-08-03T14:28:38.454Z,1.17
2022-08-03T14:31:08.312Z,1.65
2022-08-03T14:33:48.940Z,1.20
2022-08-03T14:36:16.154Z,1.25
2022-08-03T14:38:44.264Z,1.67
2022-08-03T14:41:12.059Z,1.52
2022-08-03T14:44:00.563Z,1.58
2022-08-03T14:46:32.848Z,1.10
2022-08-03T14:50:31.596Z,1.20
2022-08-03T14:51:51.324Z,1.00
2022-08-03T14:54:21.247Z,1.20
2022-08-03T14:56:57.098Z,1.52
2022-08-03T14:59:55.612Z,1.50
2022-08-03T15:02:26.398Z,1.27
2022-08-03T15:04:54.693Z,1.25
2022-08-03T15:07:22.153Z,1.30
2022-08-03T15:09:50.692Z,1.20
2022-08-03T15:14:45.228Z,1.33
2022-08-03T15:17:12.539Z,1.23
2022-08-03T15:20:01.408Z,1.35
2022-08-03T15:22:34.795Z,1.02
2022-08-03T15:26:01.676Z,1.40
2022-08-03T15:28:04.155Z,1.27
2022-08-03T15:30:35.912Z,1.30
2022-08-03T15:33:03.452Z,1.33
2022-08-03T15:35:30.685Z,1.13
2022-08-03T15:37:57.911Z,1.38
2022-08-03T15:40:25.249Z,1.30
2022-08-03T15:42:52.625Z,0.90
2022-08-03T15:45:20.525Z,0.95
2022-08-03T15:47:47.880Z,1.52
2022-08-03T15:50:15.286Z,1.33
2022-08-03T15:52:42.652Z,1.45
2022-08-03T15:55:15.477Z,1.30
2022-08-03T15:59:04.608Z,1.50
2022-08-03T16:00:33.523Z,1.10
2022-08-03T16:03:05.891Z,1.00
2022-08-03T16:05:33.532Z,1.30
2022-08-03T16:08:03.411Z,1.10
2022-08-03T16:10:31.538Z,1.30
2022-08-03T16:12:59.989Z,2.30
2022-08-03T16:15:27.846Z,1.27
2022-08-03T16:17:55.127Z,1.13
2022-08-03T16:20:30.844Z,1.15
2022-08-03T16:23:07.763Z,1.10
2022-08-03T16:25:42.484Z,1.10
2022-08-03T16:28:14.376Z,1.20
2022-08-03T16:30:43.960Z,1.48
2022-08-03T16:33:17.473Z,1.13
2022-08-03T16:35:46.526Z,1.30
2022-08-03T16:38:18.351Z,1.20
2022-08-03T16:40:51.472Z,1.38
2022-08-03T16:43:20.398Z,1.40
2022-08-03T16:45:48.055Z,1.33
2022-08-03T16:48:16.159Z,1.30
2022-08-03T16:50:44.401Z,1.10
2022-08-03T16:53:16.634Z,1.15
2022-08-03T16:55:53.249Z,1.33
2022-08-03T16:58:34.883Z,1.25
2022-08-03T17:01:24.064Z,1.50
2022-08-03T17:04:01.971Z,1.13
2022-08-03T17:06:35.648Z,1.30
2022-08-03T17:09:08.882Z,1.10
2022-08-03T17:11:44.002Z,1.40
2022-08-03T17:14:13.691Z,1.58
2022-08-03T17:16:52.111Z,1.40
2022-08-03T17:19:23.183Z,1.38
2022-08-03T17:22:04.807Z,1.10
2022-08-03T17:24:41.098Z,1.17
2022-08-03T17:28:41.834Z,0.93
2022-08-03T17:30:01.176Z,1.45
2022-08-03T17:32:32.237Z,1.02
2022-08-03T17:35:00.402Z,1.08
2022-08-03T17:37:57.996Z,1.30
2022-08-03T17:40:17.466Z,1.40
2022-08-03T17:42:46.033Z,1.58
2022-08-03T17:45:18.886Z,1.63
2022-08-03T17:47:57.195Z,1.45
2022-08-03T17:50:34.054Z,1.45
2022-08-03T17:53:15.169Z,1.42
2022-08-03T17:59:11.861Z,1.70
2022-08-03T18:02:26.496Z,1.73
2022-08-03T18:05:16.227Z,1.90
2022-08-03T18:07:59.210Z,1.98
2022-08-03T18:10:35.675Z,2.10
2022-08-03T18:13:10.536Z,2.13
2022-08-03T18:15:47.406Z,2.30
2022-08-03T18:18:16.428Z,2.28
2022-08-03T18:20:57.332Z,2.35
2022-08-03T18:23:37.394Z,3.10
2022-08-03T18:26:07.828Z,2.92
2022-08-03T18:28:39.911Z,2.53
2022-08-03T18:31:11.817Z,2.33
2022-08-03T18:34:16.801Z,3.33
2022-08-03T18:36:29.946Z,2.80
2022-08-03T18:39:02.976Z,2.88
2022-08-03T18:41:34.569Z,2.70
2022-08-03T18:44:07.940Z,2.60
2022-08-03T18:47:51.491Z,2.40
2022-08-03T18:50:25.833Z,2.70
2022-08-03T18:53:16.437Z,2.50
2022-08-03T18:56:01.976Z,2.10
2022-08-03T18:58:48.432Z,2.40
2022-08-03T19:01:57.416Z,2.90
2022-08-03T19:04:45.346Z,2.95
2022-08-03T19:07:21.563Z,3.20
2022-08-03T19:09:59.627Z,2.67
2022-08-03T19:13:00.751Z,2.42
2022-08-03T19:15:36.697Z,2.35
2022-08-03T19:18:11.043Z,2.85
2022-08-03T19:20:38.557Z,2.80
2022-08-03T19:23:07.479Z,2.97
2022-08-03T19:25:41.841Z,2.53
2022-08-03T19:28:09.561Z,2.47
2022-08-03T19:30:40.383Z,2.75
2022-08-03T19:33:13.691Z,2.50
2022-08-03T19:35:51.293Z,2.97
2022-08-03T19:38:28.726Z,2.42
2022-08-03T19:40:59.557Z,2.80
2022-08-03T19:43:52.786Z,3.30
2022-08-03T19:46:22.431Z,2.35
2022-08-03T19:49:10.466Z,2.65
2022-08-03T19:52:01.452Z,2.72
2022-08-03T19:54:52.951Z,2.40
2022-08-03T19:57:23.863Z,2.25
2022-08-03T19:59:52.777Z,2.72
2022-08-03T20:02:26.375Z,2.42
2022-08-03T20:04:55.861Z,2.30
2022-08-03T20:07:24.298Z,2.45
2022-08-03T20:09:54.529Z,4.10
2022-08-03T20:12:27.495Z,3.03
2022-08-03T20:14:57.520Z,2.40
2022-08-03T20:17:56.417Z,2.47
2022-08-03T20:20:13.404Z,2.83
2022-08-03T20:22:45.528Z,2.90
2022-08-03T20:25:16.405Z,2.53
2022-08-03T20:28:08.277Z,3.30
2022-08-03T20:30:36.530Z,2.97
2022-08-03T20:33:04.534Z,3.10
2022-08-03T20:38:00.728Z,2.90
2022-08-03T20:40:28.041Z,3.22
2022-08-03T20:42:56.372Z,2.80
2022-08-03T20:45:59.039Z,2.80
2022-08-03T20:48:11.262Z,2.67
2022-08-03T20:50:44.278Z,2.45
2022-08-03T20:53:12.672Z,2.97
2022-08-03T20:55:48.004Z,2.72
2022-08-03T20:58:27.627Z,2.90
2022-08-03T21:00:56.939Z,2.90
2022-08-03T21:03:24.231Z,3.20
2022-08-03T21:06:10.524Z,3.10
2022-08-03T21:08:46.882Z,2.83
2022-08-03T21:11:19.102Z,2.90
2022-08-03T21:13:04.111Z,1.67
2022-08-03T21:14:01.385Z,2.92
2022-08-03T21:16:29.665Z,3.80
2022-08-03T21:18:59.603Z,2.97
2022-08-03T21:21:28.595Z,3.10
2022-08-03T21:23:56.336Z,2.60
2022-08-03T21:26:25.689Z,2.88
2022-08-03T21:28:55.324Z,3.15
2022-08-03T21:31:25.627Z,3.03
2022-08-03T21:33:58.619Z,2.97
2022-08-03T21:36:31.777Z,2.42
2022-08-03T21:38:59.753Z,2.97
2022-08-03T21:41:29.481Z,3.40
2022-08-03T21:43:57.107Z,2.60
2022-08-03T21:46:24.837Z,3.08
2022-08-03T21:49:52.174Z,2.65
2022-08-03T21:51:46.066Z,2.45
2022-08-03T21:54:14.064Z,2.92
2022-08-03T21:56:42.673Z,3.30
2022-08-03T21:59:17.534Z,2.85
2022-08-03T22:01:49.066Z,3.13
2022-08-03T22:04:50.100Z,2.72
2022-08-03T22:09:35.491Z,3.03
2022-08-03T22:12:03.026Z,2.53
2022-08-03T22:14:33.055Z,2.60
2022-08-03T22:17:03.461Z,2.63
2022-08-03T22:19:33.827Z,2.60
2022-08-03T22:22:05.981Z,2.67
2022-08-03T22:24:36.116Z,2.60
2022-08-03T22:27:24.004Z,2.53
2022-08-03T22:29:52.536Z,2.67
2022-08-03T22:32:21.459Z,2.88
2022-08-03T22:34:49.910Z,2.70
2022-08-03T22:37:18.617Z,3.15
2022-08-03T22:39:46.514Z,2.60
2022-08-03T22:42:16.826Z,2.67
2022-08-03T22:44:45.344Z,2.75
2022-08-03T22:47:13.758Z,2.60
2022-08-03T22:49:41.199Z,2.53
2022-08-03T22:52:11.255Z,2.83
2022-08-03T22:54:38.652Z,3.00
2022-08-03T22:57:06.748Z,2.58
2022-08-03T22:59:41.127Z,2.80
2022-08-03T23:02:21.242Z,2.95
2022-08-03T23:04:56.901Z,2.97
2022-08-03T23:07:42.152Z,3.10
2022-08-03T23:10:12.563Z,3.65
2022-08-03T23:12:41.601Z,2.80
2022-08-03T23:15:11.571Z,2.85
2022-08-03T23:17:57.401Z,3.28
2022-08-03T23:20:26.692Z,3.08
2022-08-03T23:22:54.949Z,2.97
2022-08-03T23:25:22.624Z,3.33
2022-08-03T23:28:04.821Z,3.88
2022-08-03T23:30:34.687Z,3.75
2022-08-03T23:33:02.392Z,3.90
2022-08-03T23:36:27.980Z,4.50
2022-08-03T23:38:36.311Z,3.80
2022-08-03T23:41:04.716Z,4.63
2022-08-03T23:43:45.100Z,4.97
2022-08-03T23:46:22.472Z,4.00
2022-08-03T23:51:28.351Z,4.63
2022-08-03T23:54:10.035Z,3.97
2022-08-03T23:56:46.755Z,4.15
2022-08-03T23:59:39.821Z,3.63
